sensor_id;sensor_type;location;lat;lon;timestamp;P1;durP1;ratioP1;P2;durP2;ratioP2
20884;SDS011;10602;48.000;9.654;2022-09-14T02:30:16;4.77;;;2.20;;
20884;SDS011;10602;48.000;9.654;2022-09-14T02:35:35;2.57;;;2.00;;
20884;SDS011;10602;48.000;9.654;2022-09-14T02:38:09;4.13;;;2.17;;
20884;SDS011;10602;48.000;9.654;2022-09-14T02:40:38;4.80;;;2.40;;
20884;SDS011;10602;48.000;9.654;2022-09-14T02:46:02;4.93;;;2.50;;
20884;SDS011;10602;48.000;9.654;2022-09-14T02:51:30;4.57;;;2.40;;
20884;SDS011;10602;48.000;9.654;2022-09-14T02:54:14;2.77;;;2.27;;
20884;SDS011;10602;48.000;9.654;2022-09-14T02:56:42;3.60;;;2.50;;
20884;SDS011;10602;48.000;9.654;2022-09-14T02:59:11;3.37;;;2.43;;
20884;SDS011;10602;48.000;9.654;2022-09-14T03:01:38;3.73;;;2.77;;
20884;SDS011;10602;48.000;9.654;2022-09-14T03:04:06;3.83;;;2.70;;
20884;SDS011;10602;48.000;9.654;2022-09-14T03:06:33;4.53;;;3.10;;
20884;SDS011;10602;48.000;9.654;2022-09-14T03:09:01;5.50;;;3.10;;
20884;SDS011;10602;48.000;9.654;2022-09-14T03:11:29;3.43;;;2.73;;
20884;SDS011;10602;48.000;9.654;2022-09-14T03:13:56;4.73;;;2.80;;
20884;SDS011;10602;48.000;9.654;2022-09-14T03:16:24;4.80;;;2.90;;
20884;SDS011;10602;48.000;9.654;2022-09-14T03:18:51;3.17;;;2.87;;
20884;SDS011;10602;48.000;9.654;2022-09-14T03:21:19;3.57;;;2.93;;
20884;SDS011;10602;48.000;9.654;2022-09-14T03:31:54;4.53;;;2.93;;
20884;SDS011;10602;48.000;9.654;2022-09-14T03:34:22;2.73;;;2.33;;
20884;SDS011;10602;48.000;9.654;2022-09-14T03:36:49;2.70;;;2.30;;
20884;SDS011;10602;48.000;9.654;2022-09-14T03:39:17;4.00;;;2.43;;
20884;SDS011;10602;48.000;9.654;2022-09-14T03:41:44;3.37;;;2.40;;
20884;SDS011;10602;48.000;9.654;2022-09-14T03:44:12;3.67;;;2.53;;
20884;SDS011;10602;48.000;9.654;2022-09-14T03:46:40;4.73;;;2.83;;
20884;SDS011;10602;48.000;9.654;2022-09-14T03:49:09;5.90;;;2.70;;
20884;SDS011;10602;48.000;9.654;2022-09-14T03:51:36;3.50;;;2.77;;
20884;SDS011;10602;48.000;9.654;2022-09-14T03:54:04;3.07;;;2.50;;
20884;SDS011;10602;48.000;9.654;2022-09-14T03:56:31;4.00;;;2.50;;
20884;SDS011;10602;48.000;9.654;2022-09-14T03:58:59;3.83;;;2.80;;
20884;SDS011;10602;48.000;9.654;2022-09-14T04:01:27;3.60;;;2.63;;
20884;SDS011;10602;48.000;9.654;2022-09-14T04:03:55;3.83;;;2.97;;
20884;SDS011;10602;48.000;9.654;2022-09-14T04:06:23;3.33;;;2.60;;
20884;SDS011;10602;48.000;9.654;2022-09-14T04:08:51;3.63;;;3.00;;
20884;SDS011;10602;48.000;9.654;2022-09-14T04:11:22;3.83;;;2.90;;
20884;SDS011;10602;48.000;9.654;2022-09-14T04:13:51;3.20;;;2.70;;
20884;SDS011;10602;48.000;9.654;2022-09-14T04:16:19;3.77;;;3.07;;
20884;SDS011;10602;48.000;9.654;2022-09-14T04:18:47;3.77;;;3.37;;
20884;SDS011;10602;48.000;9.654;2022-09-14T04:21:17;4.17;;;3.27;;
20884;SDS011;10602;48.000;9.654;2022-09-14T04:23:47;3.73;;;3.33;;
20884;SDS011;10602;48.000;9.654;2022-09-14T04:26:20;4.83;;;2.87;;
20884;SDS011;10602;48.000;9.654;2022-09-14T04:28:50;3.43;;;3.00;;
20884;SDS011;10602;48.000;9.654;2022-09-14T04:31:18;5.50;;;3.20;;
20884;SDS011;10602;48.000;9.654;2022-09-14T04:33:45;3.70;;;3.10;;
20884;SDS011;10602;48.000;9.654;2022-09-14T04:36:16;3.87;;;3.03;;
20884;SDS011;10602;48.000;9.654;2022-09-14T04:38:45;4.10;;;3.10;;
20884;SDS011;10602;48.000;9.654;2022-09-14T04:41:18;4.40;;;3.20;;
20884;SDS011;10602;48.000;9.654;2022-09-14T04:43:46;4.33;;;2.97;;
20884;SDS011;10602;48.000;9.654;2022-09-14T04:46:19;3.50;;;3.00;;
20884;SDS011;10602;48.000;9.654;2022-09-14T04:48:48;5.30;;;2.97;;
20884;SDS011;10602;48.000;9.654;2022-09-14T04:51:17;3.67;;;3.00;;
20884;SDS011;10602;48.000;9.654;2022-09-14T04:53:47;4.03;;;2.97;;
20884;SDS011;10602;48.000;9.654;2022-09-14T04:56:17;4.30;;;2.90;;
20884;SDS011;10602;48.000;9.654;2022-09-14T04:58:48;6.63;;;3.07;;
20884;SDS011;10602;48.000;9.654;2022-09-14T05:01:19;3.67;;;2.70;;
20884;SDS011;10602;48.000;9.654;2022-09-14T05:03:48;5.77;;;2.80;;
20884;SDS011;10602;48.000;9.654;2022-09-14T05:06:17;4.00;;;2.63;;
20884;SDS011;10602;48.000;9.654;2022-09-14T05:08:47;2.90;;;2.40;;
20884;SDS011;10602;48.000;9.654;2022-09-14T05:11:16;5.13;;;2.60;;
20884;SDS011;10602;48.000;9.654;2022-09-14T05:13:46;5.00;;;2.93;;
20884;SDS011;10602;48.000;9.654;2022-09-14T05:16:14;3.20;;;2.40;;
20884;SDS011;10602;48.000;9.654;2022-09-14T05:18:43;8.07;;;2.77;;
20884;SDS011;10602;48.000;9.654;2022-09-14T05:21:12;2.70;;;2.33;;
20884;SDS011;10602;48.000;9.654;2022-09-14T05:23:42;5.40;;;2.70;;
20884;SDS011;10602;48.000;9.654;2022-09-14T05:26:10;3.40;;;2.30;;
20884;SDS011;10602;48.000;9.654;2022-09-14T05:28:38;4.17;;;2.77;;
20884;SDS011;10602;48.000;9.654;2022-09-14T05:31:07;4.33;;;2.57;;
20884;SDS011;10602;48.000;9.654;2022-09-14T05:33:37;4.23;;;2.57;;
20884;SDS011;10602;48.000;9.654;2022-09-14T05:36:05;4.30;;;2.53;;
20884;SDS011;10602;48.000;9.654;2022-09-14T05:38:34;3.10;;;2.60;;
20884;SDS011;10602;48.000;9.654;2022-09-14T05:41:13;4.43;;;2.70;;
20884;SDS011;10602;48.000;9.654;2022-09-14T05:43:42;4.00;;;2.90;;
20884;SDS011;10602;48.000;9.654;2022-09-14T05:46:11;3.67;;;2.50;;
20884;SDS011;10602;48.000;9.654;2022-09-14T14:31:20;6.03;;;2.33;;
20884;SDS011;10602;48.000;9.654;2022-09-14T14:33:50;3.33;;;2.30;;
20884;SDS011;10602;48.000;9.654;2022-09-14T14:36:20;5.33;;;2.50;;
20884;SDS011;10602;48.000;9.654;2022-09-14T14:38:47;7.23;;;2.20;;
20884;SDS011;10602;48.000;9.654;2022-09-14T14:41:16;4.27;;;2.00;;
20884;SDS011;10602;48.000;9.654;2022-09-14T14:43:47;5.13;;;2.67;;
20884;SDS011;10602;48.000;9.654;2022-09-14T14:46:16;4.40;;;2.27;;
20884;SDS011;10602;48.000;9.654;2022-09-14T14:48:44;2.83;;;1.90;;
20884;SDS011;10602;48.000;9.654;2022-09-14T14:51:13;4.77;;;2.13;;
20884;SDS011;10602;48.000;9.654;2022-09-14T14:53:41;4.77;;;2.20;;
20884;SDS011;10602;48.000;9.654;2022-09-14T14:56:10;3.77;;;2.10;;
20884;SDS011;10602;48.000;9.654;2022-09-14T14:58:42;3.57;;;2.40;;
20884;SDS011;10602;48.000;9.654;2022-09-14T15:01:11;4.97;;;2.60;;
20884;SDS011;10602;48.000;9.654;2022-09-14T15:03:39;5.07;;;2.33;;
20884;SDS011;10602;48.000;9.654;2022-09-14T15:06:12;3.80;;;2.10;;
20884;SDS011;10602;48.000;9.654;2022-09-14T15:08:41;2.93;;;2.17;;
20884;SDS011;10602;48.000;9.654;2022-09-14T15:11:14;3.60;;;1.90;;
20884;SDS011;10602;48.000;9.654;2022-09-14T15:13:43;3.77;;;1.90;;
20884;SDS011;10602;48.000;9.654;2022-09-14T15:16:11;3.90;;;1.80;;
20884;SDS011;10602;48.000;9.654;2022-09-14T15:18:40;3.13;;;2.70;;
20884;SDS011;10602;48.000;9.654;2022-09-14T15:21:08;2.50;;;1.67;;
20884;SDS011;10602;48.000;9.654;2022-09-14T15:23:35;4.10;;;1.80;;
20884;SDS011;10602;48.000;9.654;2022-09-14T15:26:03;3.90;;;1.67;;
20884;SDS011;10602;48.000;9.654;2022-09-14T15:28:31;2.83;;;1.80;;
20884;SDS011;10602;48.000;9.654;2022-09-14T15:31:00;2.37;;;2.00;;
20884;SDS011;10602;48.000;9.654;2022-09-14T15:33:28;3.00;;;2.03;;
20884;SDS011;10602;48.000;9.654;2022-09-14T15:35:55;3.40;;;1.70;;
20884;SDS011;10602;48.000;9.654;2022-09-14T15:38:23;5.53;;;2.70;;
20884;SDS011;10602;48.000;9.654;2022-09-14T15:40:51;4.23;;;2.40;;
20884;SDS011;10602;48.000;9.654;2022-09-14T15:43:19;2.67;;;1.57;;
20884;SDS011;10602;48.000;9.654;2022-09-14T15:45:47;2.03;;;1.80;;
20884;SDS011;10602;48.000;9.654;2022-09-14T15:48:15;2.73;;;1.43;;
20884;SDS011;10602;48.000;9.654;2022-09-14T15:50:44;2.43;;;1.40;;
20884;SDS011;10602;48.000;9.654;2022-09-14T15:53:14;2.50;;;1.50;;
20884;SDS011;10602;48.000;9.654;2022-09-14T15:55:43;2.83;;;1.50;;
20884;SDS011;10602;48.000;9.654;2022-09-14T15:58:12;3.53;;;1.20;;
20884;SDS011;10602;48.000;9.654;2022-09-14T16:00:42;2.23;;;1.30;;
20884;SDS011;10602;48.000;9.654;2022-09-14T16:03:10;1.50;;;1.20;;
20884;SDS011;10602;48.000;9.654;2022-09-14T16:05:38;1.57;;;1.10;;
20884;SDS011;10602;48.000;9.654;2022-09-14T16:08:05;1.57;;;1.40;;
20884;SDS011;10602;48.000;9.654;2022-09-14T16:10:33;1.90;;;1.50;;
20884;SDS011;10602;48.000;9.654;2022-09-14T16:13:00;2.93;;;2.10;;
20884;SDS011;10602;48.000;9.654;2022-09-14T16:15:28;3.47;;;1.90;;
20884;SDS011;10602;48.000;9.654;2022-09-14T16:17:56;2.60;;;1.43;;
20884;SDS011;10602;48.000;9.654;2022-09-14T16:20:23;2.17;;;1.60;;
20884;SDS011;10602;48.000;9.654;2022-09-14T16:22:51;1.53;;;1.30;;
20884;SDS011;10602;48.000;9.654;2022-09-14T16:25:19;1.33;;;1.20;;
20884;SDS011;10602;48.000;9.654;2022-09-14T16:27:46;1.73;;;1.50;;
20884;SDS011;10602;48.000;9.654;2022-09-14T16:30:14;3.03;;;1.40;;
20884;SDS011;10602;48.000;9.654;2022-09-14T16:32:42;3.13;;;1.40;;
20884;SDS011;10602;48.000;9.654;2022-09-14T16:35:09;2.30;;;1.27;;
20884;SDS011;10602;48.000;9.654;2022-09-14T16:37:36;2.20;;;1.20;;
20884;SDS011;10602;48.000;9.654;2022-09-14T16:40:04;2.10;;;1.30;;
20884;SDS011;10602;48.000;9.654;2022-09-14T16:42:32;1.43;;;1.30;;
20884;SDS011;10602;48.000;9.654;2022-09-14T16:45:00;2.00;;;1.10;;
20884;SDS011;10602;48.000;9.654;2022-09-14T16:47:27;1.73;;;1.10;;
20884;SDS011;10602;48.000;9.654;2022-09-14T16:49:55;2.40;;;1.13;;
20884;SDS011;10602;48.000;9.654;2022-09-14T16:52:23;1.93;;;1.30;;
20884;SDS011;10602;48.000;9.654;2022-09-14T16:54:50;3.20;;;1.10;;
20884;SDS011;10602;48.000;9.654;2022-09-14T16:57:18;1.87;;;1.43;;
20884;SDS011;10602;48.000;9.654;2022-09-14T16:59:46;1.20;;;1.10;;
20884;SDS011;10602;48.000;9.654;2022-09-14T17:02:13;1.20;;;1.10;;
20884;SDS011;10602;48.000;9.654;2022-09-14T17:04:42;1.80;;;1.23;;
20884;SDS011;10602;48.000;9.654;2022-09-14T17:07:09;2.50;;;1.17;;
20884;SDS011;10602;48.000;9.654;2022-09-14T17:09:37;2.23;;;1.40;;
20884;SDS011;10602;48.000;9.654;2022-09-14T17:12:05;1.40;;;1.30;;
20884;SDS011;10602;48.000;9.654;2022-09-14T17:14:33;2.70;;;1.37;;
20884;SDS011;10602;48.000;9.654;2022-09-14T17:17:00;2.43;;;1.50;;
20884;SDS011;10602;48.000;9.654;2022-09-14T17:19:28;2.17;;;1.27;;
20884;SDS011;10602;48.000;9.654;2022-09-14T17:21:55;1.90;;;1.57;;
20884;SDS011;10602;48.000;9.654;2022-09-14T17:24:23;3.30;;;1.50;;
20884;SDS011;10602;48.000;9.654;2022-09-14T17:26:51;2.13;;;1.50;;
20884;SDS011;10602;48.000;9.654;2022-09-14T17:29:18;2.20;;;1.57;;
20884;SDS011;10602;48.000;9.654;2022-09-14T17:31:46;1.90;;;1.70;;
20884;SDS011;10602;48.000;9.654;2022-09-14T17:34:14;5.40;;;1.73;;
20884;SDS011;10602;48.000;9.654;2022-09-14T17:36:42;2.90;;;1.90;;
20884;SDS011;10602;48.000;9.654;2022-09-14T17:39:10;5.20;;;1.93;;
20884;SDS011;10602;48.000;9.654;2022-09-14T17:41:40;3.70;;;2.03;;
20884;SDS011;10602;48.000;9.654;2022-09-14T17:44:09;2.77;;;1.67;;
20884;SDS011;10602;48.000;9.654;2022-09-14T17:46:38;2.77;;;1.90;;
20884;SDS011;10602;48.000;9.654;2022-09-14T17:49:07;3.13;;;1.70;;
20884;SDS011;10602;48.000;9.654;2022-09-14T17:51:37;2.63;;;2.00;;
20884;SDS011;10602;48.000;9.654;2022-09-14T17:54:05;4.17;;;1.97;;
20884;SDS011;10602;48.000;9.654;2022-09-14T17:56:33;3.73;;;2.03;;
20884;SDS011;10602;48.000;9.654;2022-09-14T17:59:15;2.83;;;1.70;;
20884;SDS011;10602;48.000;9.654;2022-09-14T18:01:46;4.73;;;2.00;;
20884;SDS011;10602;48.000;9.654;2022-09-14T18:04:15;3.83;;;2.00;;
20884;SDS011;10602;48.000;9.654;2022-09-14T18:06:44;2.83;;;1.80;;
20884;SDS011;10602;48.000;9.654;2022-09-14T18:09:14;5.33;;;1.93;;
20884;SDS011;10602;48.000;9.654;2022-09-14T18:11:44;4.40;;;1.70;;
20884;SDS011;10602;48.000;9.654;2022-09-14T18:14:12;3.73;;;2.10;;
20884;SDS011;10602;48.000;9.654;2022-09-14T18:16:41;2.77;;;1.90;;
20884;SDS011;10602;48.000;9.654;2022-09-14T18:19:09;3.63;;;1.67;;
20884;SDS011;10602;48.000;9.654;2022-09-14T18:21:38;4.80;;;1.90;;
20884;SDS011;10602;48.000;9.654;2022-09-14T18:24:05;3.60;;;1.73;;
20884;SDS011;10602;48.000;9.654;2022-09-14T18:26:34;3.37;;;2.27;;
20884;SDS011;10602;48.000;9.654;2022-09-14T18:29:03;4.03;;;2.13;;
20884;SDS011;10602;48.000;9.654;2022-09-14T18:31:30;1.93;;;1.60;;
20884;SDS011;10602;48.000;9.654;2022-09-14T18:33:58;3.47;;;2.10;;
20884;SDS011;10602;48.000;9.654;2022-09-14T18:36:26;5.27;;;2.00;;
20884;SDS011;10602;48.000;9.654;2022-09-14T18:38:54;5.13;;;2.50;;
20884;SDS011;10602;48.000;9.654;2022-09-14T18:41:23;2.73;;;1.80;;
20884;SDS011;10602;48.000;9.654;2022-09-14T18:43:52;4.63;;;1.90;;
20884;SDS011;10602;48.000;9.654;2022-09-14T18:46:20;4.87;;;1.70;;
20884;SDS011;10602;48.000;9.654;2022-09-14T18:48:53;4.47;;;1.80;;
20884;SDS011;10602;48.000;9.654;2022-09-14T18:51:17;2.97;;;1.90;;
20884;SDS011;10602;48.000;9.654;2022-09-14T18:53:45;2.97;;;1.87;;
20884;SDS011;10602;48.000;9.654;2022-09-14T18:56:14;4.17;;;1.90;;
20884;SDS011;10602;48.000;9.654;2022-09-14T18:58:44;6.73;;;1.97;;
20884;SDS011;10602;48.000;9.654;2022-09-14T19:01:13;5.07;;;2.30;;
20884;SDS011;10602;48.000;9.654;2022-09-14T19:03:41;4.60;;;2.60;;
20884;SDS011;10602;48.000;9.654;2022-09-14T19:06:15;4.00;;;2.00;;
20884;SDS011;10602;48.000;9.654;2022-09-14T19:08:39;4.03;;;2.23;;
20884;SDS011;10602;48.000;9.654;2022-09-14T19:11:12;3.10;;;2.20;;
20884;SDS011;10602;48.000;9.654;2022-09-14T19:13:41;5.37;;;2.50;;
20884;SDS011;10602;48.000;9.654;2022-09-14T19:16:09;3.63;;;2.23;;
20884;SDS011;10602;48.000;9.654;2022-09-14T19:18:42;3.97;;;2.40;;
20884;SDS011;10602;48.000;9.654;2022-09-14T19:21:12;5.63;;;2.40;;
20884;SDS011;10602;48.000;9.654;2022-09-14T19:23:44;3.63;;;2.10;;
20884;SDS011;10602;48.000;9.654;2022-09-14T19:26:13;3.17;;;2.20;;
20884;SDS011;10602;48.000;9.654;2022-09-14T19:28:43;6.60;;;2.50;;
20884;SDS011;10602;48.000;9.654;2022-09-14T19:31:12;3.53;;;2.13;;
20884;SDS011;10602;48.000;9.654;2022-09-14T19:33:42;4.83;;;2.30;;
20884;SDS011;10602;48.000;9.654;2022-09-14T19:36:12;5.43;;;2.40;;
20884;SDS011;10602;48.000;9.654;2022-09-14T19:38:40;2.73;;;2.10;;
20884;SDS011;10602;48.000;9.654;2022-09-14T19:41:07;5.13;;;2.73;;
20884;SDS011;10602;48.000;9.654;2022-09-14T19:54:18;4.70;;;2.20;;
20884;SDS011;10602;48.000;9.654;2022-09-14T19:56:46;4.03;;;2.30;;
20884;SDS011;10602;48.000;9.654;2022-09-14T19:59:13;2.83;;;2.07;;
20884;SDS011;10602;48.000;9.654;2022-09-14T20:01:41;3.50;;;2.30;;
20884;SDS011;10602;48.000;9.654;2022-09-14T20:04:09;4.73;;;2.20;;
20884;SDS011;10602;48.000;9.654;2022-09-14T20:39:22;4.17;;;2.43;;
20884;SDS011;10602;48.000;9.654;2022-09-14T20:41:50;3.00;;;2.60;;
20884;SDS011;10602;48.000;9.654;2022-09-14T20:44:18;4.07;;;2.63;;
20884;SDS011;10602;48.000;9.654;2022-09-14T20:46:47;4.73;;;2.70;;
20884;SDS011;10602;48.000;9.654;2022-09-14T20:49:18;5.73;;;3.00;;
20884;SDS011;10602;48.000;9.654;2022-09-14T20:51:46;3.63;;;2.80;;
20884;SDS011;10602;48.000;9.654;2022-09-14T21:34:18;5.80;;;3.90;;
20884;SDS011;10602;48.000;9.654;2022-09-14T21:36:46;6.57;;;3.73;;
20884;SDS011;10602;48.000;9.654;2022-09-14T21:39:17;4.60;;;3.97;;
20884;SDS011;10602;48.000;9.654;2022-09-14T21:41:47;6.17;;;3.40;;
20884;SDS011;10602;48.000;9.654;2022-09-14T21:44:16;4.93;;;3.40;;
20884;SDS011;10602;48.000;9.654;2022-09-14T21:46:43;6.57;;;3.60;;
20884;SDS011;10602;48.000;9.654;2022-09-14T21:49:17;5.60;;;3.93;;
20884;SDS011;10602;48.000;9.654;2022-09-14T21:51:46;6.80;;;3.73;;
20884;SDS011;10602;48.000;9.654;2022-09-14T21:54:17;5.53;;;3.53;;
20884;SDS011;10602;48.000;9.654;2022-09-14T21:56:44;4.00;;;3.37;;
20884;SDS011;10602;48.000;9.654;2022-09-14T21:59:16;5.10;;;3.70;;
20884;SDS011;10602;48.000;9.654;2022-09-14T22:01:45;4.60;;;3.50;;
20884;SDS011;10602;48.000;9.654;2022-09-14T22:04:16;4.60;;;3.53;;
20884;SDS011;10602;48.000;9.654;2022-09-14T22:06:47;4.53;;;3.30;;
20884;SDS011;10602;48.000;9.654;2022-09-14T22:09:16;4.13;;;3.13;;
20884;SDS011;10602;48.000;9.654;2022-09-14T22:11:45;4.57;;;3.13;;
20884;SDS011;10602;48.000;9.654;2022-09-14T22:14:13;3.83;;;2.83;;
20884;SDS011;10602;48.000;9.654;2022-09-14T22:16:43;5.80;;;3.17;;
20884;SDS011;10602;48.000;9.654;2022-09-14T22:21:51;5.53;;;3.07;;
20884;SDS011;10602;48.000;9.654;2022-09-14T22:52:53;4.70;;;2.30;;
20884;SDS011;10602;48.000;9.654;2022-09-14T22:55:21;3.37;;;2.50;;
20884;SDS011;10602;48.000;9.654;2022-09-14T22:57:50;4.67;;;2.40;;
20884;SDS011;10602;48.000;9.654;2022-09-14T23:00:17;3.00;;;2.27;;
20884;SDS011;10602;48.000;9.654;2022-09-14T23:02:45;3.00;;;2.30;;
20884;SDS011;10602;48.000;9.654;2022-09-14T23:05:12;3.97;;;2.20;;
20884;SDS011;10602;48.000;9.654;2022-09-14T23:07:40;3.40;;;2.30;;
20884;SDS011;10602;48.000;9.654;2022-09-14T23:10:08;3.17;;;2.13;;
20884;SDS011;10602;48.000;9.654;2022-09-14T23:12:35;4.00;;;2.13;;
20884;SDS011;10602;48.000;9.654;2022-09-14T23:15:03;2.83;;;2.30;;
20884;SDS011;10602;48.000;9.654;2022-09-14T23:17:31;2.90;;;2.23;;
20884;SDS011;10602;48.000;9.654;2022-09-14T23:19:59;3.77;;;2.23;;
20884;SDS011;10602;48.000;9.654;2022-09-14T23:22:27;6.23;;;2.70;;
20884;SDS011;10602;48.000;9.654;2022-09-14T23:24:54;3.73;;;2.27;;
20884;SDS011;10602;48.000;9.654;2022-09-14T23:27:22;3.23;;;2.37;;
20884;SDS011;10602;48.000;9.654;2022-09-14T23:29:49;4.23;;;2.43;;
20884;SDS011;10602;48.000;9.654;2022-09-14T23:32:17;3.10;;;2.17;;
20884;SDS011;10602;48.000;9.654;2022-09-14T23:34:45;3.33;;;2.40;;
20884;SDS011;10602;48.000;9.654;2022-09-14T23:37:13;3.30;;;2.70;;
20884;SDS011;10602;48.000;9.654;2022-09-14T23:39:41;2.80;;;2.33;;
20884;SDS011;10602;48.000;9.654;2022-09-14T23:42:08;4.60;;;2.33;;
20884;SDS011;10602;48.000;9.654;2022-09-14T23:44:36;3.27;;;2.07;;
20884;SDS011;10602;48.000;9.654;2022-09-14T23:47:04;4.50;;;2.33;;
20884;SDS011;10602;48.000;9.654;2022-09-14T23:49:32;4.17;;;1.93;;
20884;SDS011;10602;48.000;9.654;2022-09-14T23:52:00;3.63;;;2.03;;
20884;SDS011;10602;48.000;9.654;2022-09-14T23:54:31;3.17;;;2.10;;
20884;SDS011;10602;48.000;9.654;2022-09-14T23:56:57;2.40;;;2.13;;
20884;SDS011;10602;48.000;9.654;2022-09-14T23:59:25;2.63;;;2.00;;
